Time;durP1;ratioP1;P1;durP2;ratioP2;P2;SDS_P1;SDS_P2;PMS_P1;PMS_P2;Temp;Humidity;BMP_temperature;BMP_pressure;BME280_temperature;BME280_humidity;BME280_pressure;Samples;Min_cycle;Max_cycle;Signal;HPM_P1;HPM_P2
2022/10/18 00:06:14;;;;;;;0.93;0.93;;;;;;;10.88;65.76;101991.31;18240668;32;20391;-58
2022/10/18 00:16:18;;;;;;;1.75;1.67;;;;;;;10.91;65.49;101991.41;18240260;32;20102;-58
2022/10/18 00:26:25;;;;;;;1.02;1.02;;;;;;;10.80;65.74;101985.03;18239587;32;20109;-58
2022/10/18 00:36:29;;;;;;;1.00;1.00;;;;;;;10.45;67.25;101969.47;18238039;32;20446;-58
2022/10/18 00:46:35;;;;;;;0.80;0.80;;;;;;;10.53;66.56;101974.00;18237604;32;20106;-58
2022/10/18 00:56:38;;;;;;;0.43;0.43;;;;;;;10.50;65.74;101968.72;18236905;32;20130;-58
2022/10/18 01:06:52;;;;;;;0.90;0.88;;;;;;;10.47;66.19;101962.53;18241016;32;20074;-58
2022/10/18 01:16:59;;;;;;;0.88;0.88;;;;;;;10.29;66.49;101956.00;18243674;32;20154;-58
2022/10/18 01:27:25;;;;;;;0.60;0.60;;;;;;;10.35;65.95;101943.09;18244540;32;20102;-58
2022/10/18 01:37:31;;;;;;;0.50;0.50;;;;;;;10.27;65.73;101932.47;18244420;32;20090;-58
2022/10/18 01:47:36;;;;;;;3.22;1.70;;;;;;;10.12;67.10;101925.16;18245137;32;20124;-58
2022/10/18 01:57:42;;;;;;;7.32;2.58;;;;;;;10.00;67.31;101914.44;18244817;32;20109;-58
2022/10/18 02:07:50;;;;;;;2.92;1.58;;;;;;;10.22;65.54;101912.31;18244690;32;20090;-58
2022/10/18 02:18:18;;;;;;;0.60;0.60;;;;;;;10.04;66.25;101905.81;18242679;32;20109;-58
2022/10/18 02:28:21;;;;;;;0.90;0.90;;;;;;;9.95;66.38;101905.59;18243996;32;20430;-58
2022/10/18 02:38:26;;;;;;;2.65;2.53;;;;;;;9.87;66.33;101905.41;18243080;32;20147;-58
2022/10/18 02:48:29;;;;;;;0.60;0.60;;;;;;;9.95;65.92;101902.97;18242883;32;20096;-58
2022/10/18 02:58:34;;;;;;;0.57;0.57;;;;;;;9.92;65.63;101908.13;18242425;32;20188;-58
2022/10/18 03:08:37;;;;;;;1.02;1.00;;;;;;;9.61;66.62;101904.75;18242369;32;20129;-59
2022/10/18 03:18:41;;;;;;;0.68;0.68;;;;;;;9.76;65.77;101907.75;18243095;32;20112;-58
2022/10/18 03:28:44;;;;;;;0.70;0.70;;;;;;;9.58;66.14;101911.66;18241102;32;20141;-58
2022/10/18 03:38:49;;;;;;;0.80;0.80;;;;;;;9.39;66.84;101907.66;18241059;32;20102;-58
2022/10/18 03:48:52;;;;;;;0.40;0.40;;;;;;;9.58;65.50;101915.97;18240518;32;20370;-58
2022/10/18 03:58:57;;;;;;;0.70;0.70;;;;;;;9.45;66.20;101925.19;18240930;32;20098;-58
2022/10/18 04:09:00;;;;;;;0.95;0.93;;;;;;;9.48;65.88;101911.37;18239028;32;20507;-58
2022/10/18 04:19:08;;;;;;;1.52;0.98;;;;;;;9.40;65.52;101911.19;18240213;32;20090;-58
2022/10/18 04:29:11;;;;;;;4.53;1.83;;;;;;;9.08;67.26;101898.13;18238256;32;20742;-58
2022/10/18 04:39:16;;;;;;;1.60;1.50;;;;;;;9.05;66.92;101895.44;18240288;32;20137;-58
2022/10/18 04:49:20;;;;;;;0.50;0.50;;;;;;;9.22;66.22;101896.78;18245957;32;20118;-58
2022/10/18 04:59:24;;;;;;;0.80;0.80;;;;;;;9.00;66.36;101888.34;18304277;32;20145;-58
2022/10/18 05:09:27;;;;;;;1.20;1.10;;;;;;;8.91;65.92;101895.06;18305987;32;20109;-58
2022/10/18 05:19:32;;;;;;;2.25;0.90;;;;;;;8.94;66.27;101884.72;18295463;32;20090;-58
2022/10/18 05:29:35;;;;;;;0.57;0.57;;;;;;;8.98;66.63;101890.06;18293885;32;20105;-58
2022/10/18 05:39:39;;;;;;;1.00;0.85;;;;;;;9.12;65.83;101884.37;18307403;32;20101;-57
2022/10/18 05:49:42;;;;;;;0.52;0.52;;;;;;;9.11;65.87;101883.47;18304154;32;20559;-58
2022/10/18 05:59:47;;;;;;;0.82;0.82;;;;;;;9.04;66.82;101886.72;18302920;32;20097;-58
2022/10/18 06:09:50;;;;;;;1.92;1.83;;;;;;;9.25;66.75;101896.88;18305947;32;20116;-58
2022/10/18 06:19:54;;;;;;;1.87;1.77;;;;;;;9.60;66.80;101901.25;18304275;32;20093;-58
2022/10/18 06:29:58;;;;;;;3.25;1.80;;;;;;;9.94;67.68;101907.34;18277063;32;20136;-58
2022/10/18 06:40:03;;;;;;;1.17;1.15;;;;;;;10.69;68.06;101907.31;18307209;32;20093;-58
2022/10/18 06:50:07;;;;;;;1.58;1.42;;;;;;;12.15;66.49;101905.66;18305570;32;20450;-58
2022/10/18 07:00:13;;;;;;;2.70;0.85;;;;;;;14.47;62.65;101918.63;18306468;32;20108;-59
2022/10/18 07:10:17;;;;;;;0.60;0.60;;;;;;;17.01;54.84;101893.34;18300548;32;20513;-59
2022/10/18 07:20:21;;;;;;;0.30;0.30;;;;;;;17.95;51.43;101886.50;18295318;32;20112;-60
2022/10/18 07:30:24;;;;;;;0.40;0.40;;;;;;;17.79;51.61;101883.12;18300272;32;20108;-60
2022/10/18 07:40:29;;;;;;;0.45;0.45;;;;;;;17.66;52.54;101884.13;18241227;32;20089;-59
2022/10/18 07:50:32;;;;;;;0.73;0.73;;;;;;;17.61;53.15;101881.53;18264761;32;20112;-59
2022/10/18 08:00:39;;;;;;;0.60;0.60;;;;;;;17.31;53.73;101868.53;18300104;32;20092;-59
2022/10/18 08:10:44;;;;;;;0.55;0.55;;;;;;;17.19;54.79;101866.00;18240406;32;20098;-59
2022/10/18 08:20:48;;;;;;;0.65;0.50;;;;;;;17.37;54.92;101849.16;18261578;32;20164;-59
2022/10/18 08:30:51;;;;;;;0.40;0.40;;;;;;;17.69;54.02;101841.84;18244257;32;20461;-59
2022/10/18 08:40:56;;;;;;;0.28;0.28;;;;;;;17.92;50.83;101835.47;18244313;32;20343;-60
2022/10/18 08:50:59;;;;;;;1.65;0.52;;;;;;;18.51;49.61;101811.06;18244146;32;20140;-60
2022/10/18 09:01:11;;;;;;;0.30;0.30;;;;;;;18.89;47.07;101796.44;18249770;32;20125;-60
2022/10/18 09:11:24;;;;;;;0.62;0.30;;;;;;;19.19;47.18;101788.06;18251703;32;20105;-60
2022/10/18 09:21:41;;;;;;;0.30;0.30;;;;;;;19.79;44.81;101778.22;18302778;32;20351;-60
2022/10/18 09:31:48;;;;;;;0.30;0.30;;;;;;;19.76;43.51;101762.34;18294978;32;20102;-60
2022/10/18 09:41:54;;;;;;;0.45;0.30;;;;;;;19.92;43.32;101760.31;18242444;32;20399;-60
2022/10/18 09:51:59;;;;;;;0.13;0.13;;;;;;;19.74;43.71;101746.50;18243489;32;20373;-60
2022/10/18 10:02:05;;;;;;;0.65;0.30;;;;;;;20.35;43.43;101724.97;18283626;32;20121;-60
2022/10/18 10:12:25;;;;;;;0.40;0.40;;;;;;;19.96;41.65;101715.16;18263619;32;20090;-60
2022/10/18 10:22:35;;;;;;;0.30;0.30;;;;;;;20.59;40.42;101704.09;18239198;32;20117;-60
2022/10/18 10:32:47;;;;;;;0.73;0.32;;;;;;;20.62;40.00;101693.41;18258176;32;20487;-60
2022/10/18 10:42:53;;;;;;;;;;;;;;;21.15;36.72;101676.22;18300202;32;20101;-60
2022/10/18 10:53:38;;;;;;;0.10;0.10;;;;;;;21.51;37.13;101659.31;18261174;32;20001;-60
2022/10/18 11:03:45;;;;;;;0.10;0.10;;;;;;;22.15;35.38;101637.09;18240708;32;20086;-60
2022/10/18 11:13:52;;;;;;;0.10;0.10;;;;;;;22.49;34.91;101616.53;18236589;32;20363;-60
2022/10/18 11:24:16;;;;;;;0.37;0.20;;;;;;;22.27;33.54;101605.69;18263499;32;75716;-60
2022/10/18 11:34:37;;;;;;;0.28;0.28;;;;;;;22.76;33.50;101592.56;18236555;32;20375;-60
2022/10/18 11:44:46;;;;;;;0.10;0.10;;;;;;;22.75;31.84;101584.66;18299110;32;20090;-60
2022/10/18 11:55:01;;;;;;;0.30;0.30;;;;;;;22.75;33.64;101558.87;18263935;32;20093;-60
2022/10/18 12:05:06;;;;;;;0.10;0.10;;;;;;;22.11;31.90;101553.00;18238234;32;20457;-60
2022/10/18 12:15:28;;;;;;;0.20;0.20;;;;;;;22.46;32.36;101534.13;18249995;32;20386;-61
2022/10/18 12:25:35;;;;;;;0.32;0.20;;;;;;;21.70;31.60;101516.19;18291843;32;20130;-60
2022/10/18 12:35:49;;;;;;;0.13;0.13;;;;;;;22.68;31.24;101494.37;18288918;32;20137;-60
2022/10/18 12:45:56;;;;;;;0.10;0.10;;;;;;;22.49;32.08;101471.97;18299192;32;20401;-61
2022/10/18 12:56:35;;;;;;;0.52;0.52;;;;;;;22.38;30.86;101461.69;18297792;32;20137;-60
2022/10/18 13:07:18;;;;;;;0.20;0.20;;;;;;;22.65;30.85;101461.66;18241988;32;20098;-60
2022/10/18 13:17:29;;;;;;;0.40;0.40;;;;;;;22.10;31.14;101444.03;18241459;32;20828;-61
2022/10/18 13:27:43;;;;;;;0.10;0.10;;;;;;;22.37;30.61;101436.91;18240150;32;20116;-60
2022/10/18 13:37:57;;;;;;;;;;;;;;;23.03;30.68;101435.41;18235044;32;20121;-60
2022/10/18 13:48:33;;;;;;;0.08;0.08;;;;;;;22.90;31.24;101434.16;18220361;32;19981;-60
2022/10/18 13:58:45;;;;;;;0.17;0.13;;;;;;;23.03;32.00;101427.41;18251392;32;20450;-60
2022/10/18 14:09:13;;;;;;;0.10;0.10;;;;;;;23.30;31.42;101421.97;18243840;32;20101;-60
2022/10/18 14:19:39;;;;;;;0.10;0.10;;;;;;;23.34;31.83;101407.63;18242664;32;20097;-60
2022/10/18 14:29:42;;;;;;;0.05;0.05;;;;;;;22.93;32.85;101387.00;18242688;32;20112;-60
2022/10/18 14:39:46;;;;;;;0.10;0.10;;;;;;;22.76;32.98;101376.97;18241247;32;20088;-60
2022/10/18 14:49:50;;;;;;;0.28;0.28;;;;;;;22.39;34.75;101363.22;18243844;32;20472;-60
2022/10/18 14:59:58;;;;;;;0.10;0.10;;;;;;;22.06;35.14;101355.56;18241104;32;20145;-60
2022/10/18 15:10:03;;;;;;;0.10;0.10;;;;;;;21.87;37.42;101342.03;18240764;32;20102;-60
2022/10/18 15:20:23;;;;;;;0.32;0.32;;;;;;;21.25;40.21;101336.94;18241742;32;20090;-60
2022/10/18 15:30:28;;;;;;;0.62;0.30;;;;;;;20.69;43.81;101329.81;18239436;32;20098;-60
2022/10/18 15:40:36;;;;;;;0.20;0.20;;;;;;;20.05;45.32;101331.59;18253528;32;20116;-60
2022/10/18 15:50:41;;;;;;;0.60;0.37;;;;;;;19.40;46.92;101327.03;18240559;32;20100;-60
2022/10/18 16:00:46;;;;;;;0.15;0.15;;;;;;;18.91;47.79;101329.00;18240046;32;20157;-60
2022/10/18 16:10:50;;;;;;;0.20;0.20;;;;;;;18.21;50.09;101329.56;18252173;32;20438;-60
2022/10/18 16:20:54;;;;;;;0.70;0.50;;;;;;;17.73;51.23;101321.59;18240239;32;20485;-60
2022/10/18 16:31:00;;;;;;;1.37;1.30;;;;;;;17.19;52.25;101327.75;18237756;32;20097;-60
2022/10/18 16:41:07;;;;;;;1.92;1.77;;;;;;;16.76;52.96;101339.75;18243894;32;20144;-60
2022/10/18 16:51:11;;;;;;;0.50;0.50;;;;;;;16.24;54.81;101336.81;18296799;32;20417;-60
2022/10/18 17:01:17;;;;;;;1.23;0.90;;;;;;;15.77;55.94;101349.53;18298910;32;20097;-60
2022/10/18 17:11:22;;;;;;;0.73;0.40;;;;;;;15.39;56.98;101346.31;18265038;32;20074;-60
2022/10/18 17:21:27;;;;;;;0.82;0.82;;;;;;;15.21;56.83;101365.75;18289030;32;20077;-60
2022/10/18 17:31:31;;;;;;;0.52;0.52;;;;;;;14.98;57.55;101359.72;18305368;32;20117;-59
2022/10/18 17:41:35;;;;;;;0.47;0.47;;;;;;;14.56;59.20;101338.84;18302778;32;20670;-59
2022/10/18 17:51:39;;;;;;;0.35;0.35;;;;;;;14.36;58.77;101341.53;18285733;32;20093;-60
2022/10/18 18:01:44;;;;;;;3.40;1.30;;;;;;;14.07;59.48;101352.13;18269089;32;20147;-60
2022/10/18 18:11:51;;;;;;;0.60;0.60;;;;;;;13.73;60.82;101353.00;18301044;32;20097;-59
2022/10/18 18:21:57;;;;;;;1.25;0.68;;;;;;;13.62;61.03;101344.28;18303878;32;20109;-59
2022/10/18 18:32:01;;;;;;;0.62;0.52;;;;;;;13.36;61.10;101334.59;18304145;32;20098;-60
2022/10/18 18:42:06;;;;;;;0.80;0.80;;;;;;;13.28;60.86;101335.44;18292948;32;20090;-59
2022/10/18 18:52:09;;;;;;;0.60;0.60;;;;;;;12.98;61.67;101325.78;18302488;32;20117;-59
2022/10/18 19:02:14;;;;;;;0.75;0.62;;;;;;;12.82;61.99;101324.84;18303383;32;20108;-60
2022/10/18 19:12:17;;;;;;;4.75;3.05;;;;;;;12.55;62.69;101321.25;18282791;32;20112;-60
2022/10/18 19:22:24;;;;;;;2.45;2.25;;;;;;;12.51;62.72;101301.16;18239369;32;20105;-59
2022/10/18 19:32:28;;;;;;;0.70;0.70;;;;;;;12.23;63.50;101291.44;18293860;32;20667;-60
2022/10/18 19:42:32;;;;;;;1.37;1.02;;;;;;;12.16;62.89;101300.12;18295890;32;20523;-59
2022/10/18 19:52:36;;;;;;;0.75;0.75;;;;;;;11.86;64.42;101306.91;18269486;32;20099;-60
2022/10/18 20:02:41;;;;;;;0.88;0.88;;;;;;;12.03;63.47;101305.28;18239016;32;20438;-59
2022/10/18 20:12:44;;;;;;;1.90;1.75;;;;;;;11.81;63.61;101285.94;18238140;32;20147;-59
2022/10/18 20:22:48;;;;;;;5.47;1.75;;;;;;;11.57;63.87;101282.25;18238205;32;20414;-59
2022/10/18 20:32:51;;;;;;;1.67;1.00;;;;;;;11.47;64.01;101281.28;18237103;32;20121;-59
2022/10/18 20:42:56;;;;;;;2.03;1.90;;;;;;;11.32;64.60;101281.19;18236765;32;20102;-59
2022/10/18 20:53:05;;;;;;;0.70;0.70;;;;;;;11.44;64.09;101290.87;18238580;32;20094;-59
2022/10/18 21:03:10;;;;;;;0.70;0.70;;;;;;;11.53;63.66;101256.97;18236875;32;20108;-59
2022/10/18 21:13:14;;;;;;;0.80;0.80;;;;;;;11.22;64.37;101260.19;18248920;32;20090;-59
2022/10/18 21:23:19;;;;;;;2.55;2.15;;;;;;;11.12;64.46;101257.47;18239502;32;20118;-59
2022/10/18 21:33:22;;;;;;;0.95;0.95;;;;;;;10.98;65.30;101254.72;18269061;32;20137;-60
2022/10/18 21:43:26;;;;;;;0.88;0.88;;;;;;;10.94;65.32;101252.09;18255920;32;20116;-59
2022/10/18 21:53:30;;;;;;;1.12;1.12;;;;;;;10.96;65.37;101219.00;18243946;32;20102;-59
2022/10/18 22:03:35;;;;;;;1.85;1.70;;;;;;;11.05;65.37;101218.25;18243990;32;20362;-59
2022/10/18 22:13:38;;;;;;;1.80;1.70;;;;;;;11.09;66.24;101211.28;18243765;32;20137;-59
2022/10/18 22:23:43;;;;;;;0.73;0.60;;;;;;;11.23;66.72;101196.59;18243398;32;20358;-59
2022/10/18 22:33:47;;;;;;;1.40;1.30;;;;;;;11.54;66.05;101198.56;18242166;32;20120;-59
2022/10/18 22:43:52;;;;;;;3.50;1.65;;;;;;;11.63;66.00;101187.28;18243819;32;20423;-59
2022/10/18 22:53:58;;;;;;;0.70;0.70;;;;;;;11.71;65.53;101190.81;18244082;32;20777;-59
2022/10/18 23:04:02;;;;;;;0.70;0.70;;;;;;;11.62;66.01;101201.22;18243371;32;20104;-59
2022/10/18 23:14:06;;;;;;;1.25;1.15;;;;;;;11.68;66.31;101196.03;18243237;32;20097;-59
2022/10/18 23:24:11;;;;;;;0.80;0.80;;;;;;;11.72;66.31;101173.41;18241626;32;20094;-59
2022/10/18 23:34:14;;;;;;;8.48;1.58;;;;;;;11.66;66.09;101182.06;18241192;32;20106;-59
2022/10/18 23:44:18;;;;;;;1.58;1.48;;;;;;;11.43;66.74;101177.56;18239088;32;20094;-59
2022/10/18 23:54:22;;;;;;;2.05;1.95;;;;;;;11.47;66.46;101168.87;18240573;32;20450;-59
